sensor_id;sensor_type;location;lat;lon;timestamp;P1;durP1;ratioP1;P2;durP2;ratioP2
30966;SDS011;17649;51.836;8.330;2022-08-21T00:00:53;15.05;;;10.73;;
30966;SDS011;17649;51.836;8.330;2022-08-21T00:08:11;14.65;;;10.52;;
30966;SDS011;17649;51.836;8.330;2022-08-21T00:18:39;14.45;;;9.60;;
30966;SDS011;17649;51.836;8.330;2022-08-21T00:22:10;18.05;;;10.05;;
30966;SDS011;17649;51.836;8.330;2022-08-21T00:25:32;11.93;;;8.95;;
30966;SDS011;17649;51.836;8.330;2022-08-21T00:29:02;15.73;;;11.18;;
30966;SDS011;17649;51.836;8.330;2022-08-21T00:32:31;16.27;;;11.00;;
30966;SDS011;17649;51.836;8.330;2022-08-21T00:35:54;13.93;;;10.23;;
30966;SDS011;17649;51.836;8.330;2022-08-21T00:39:19;15.10;;;10.53;;
30966;SDS011;17649;51.836;8.330;2022-08-21T00:42:40;17.23;;;10.90;;
30966;SDS011;17649;51.836;8.330;2022-08-21T00:46:16;14.75;;;10.43;;
30966;SDS011;17649;51.836;8.330;2022-08-21T00:49:55;14.50;;;9.85;;
30966;SDS011;17649;51.836;8.330;2022-08-21T00:59:43;13.23;;;9.35;;
30966;SDS011;17649;51.836;8.330;2022-08-21T01:07:03;14.17;;;9.90;;
30966;SDS011;17649;51.836;8.330;2022-08-21T01:11:07;15.85;;;9.70;;
30966;SDS011;17649;51.836;8.330;2022-08-21T01:14:46;12.63;;;8.73;;
30966;SDS011;17649;51.836;8.330;2022-08-21T01:25:44;18.10;;;10.45;;
30966;SDS011;17649;51.836;8.330;2022-08-21T01:28:58;16.43;;;11.50;;
30966;SDS011;17649;51.836;8.330;2022-08-21T01:32:45;17.73;;;12.02;;
30966;SDS011;17649;51.836;8.330;2022-08-21T01:40:04;17.42;;;12.25;;
30966;SDS011;17649;51.836;8.330;2022-08-21T01:56:34;18.30;;;12.57;;
30966;SDS011;17649;51.836;8.330;2022-08-21T02:04:17;14.00;;;11.05;;
30966;SDS011;17649;51.836;8.330;2022-08-21T02:24:10;15.60;;;11.10;;
30966;SDS011;17649;51.836;8.330;2022-08-21T02:34:49;19.75;;;12.15;;
30966;SDS011;17649;51.836;8.330;2022-08-21T03:13:21;19.47;;;13.80;;
30966;SDS011;17649;51.836;8.330;2022-08-21T03:24:42;22.10;;;17.13;;
30966;SDS011;17649;51.836;8.330;2022-08-21T03:28:34;24.48;;;15.63;;
30966;SDS011;17649;51.836;8.330;2022-08-21T03:31:44;21.05;;;16.10;;
30966;SDS011;17649;51.836;8.330;2022-08-21T03:35:10;22.27;;;16.75;;
30966;SDS011;17649;51.836;8.330;2022-08-21T03:38:20;24.05;;;16.65;;
30966;SDS011;17649;51.836;8.330;2022-08-21T03:41:31;25.95;;;16.60;;
30966;SDS011;17649;51.836;8.330;2022-08-21T03:45:20;21.10;;;16.33;;
30966;SDS011;17649;51.836;8.330;2022-08-21T04:01:28;23.13;;;16.23;;
30966;SDS011;17649;51.836;8.330;2022-08-21T04:04:30;24.70;;;17.13;;
30966;SDS011;17649;51.836;8.330;2022-08-21T04:07:33;21.63;;;16.47;;
30966;SDS011;17649;51.836;8.330;2022-08-21T04:10:37;21.60;;;17.02;;
30966;SDS011;17649;51.836;8.330;2022-08-21T04:13:40;24.95;;;17.42;;
30966;SDS011;17649;51.836;8.330;2022-08-21T04:16:45;23.90;;;17.23;;
30966;SDS011;17649;51.836;8.330;2022-08-21T04:19:48;22.63;;;15.60;;
30966;SDS011;17649;51.836;8.330;2022-08-21T04:22:53;22.60;;;16.17;;
30966;SDS011;17649;51.836;8.330;2022-08-21T04:25:55;23.63;;;15.43;;
30966;SDS011;17649;51.836;8.330;2022-08-21T04:28:59;22.05;;;15.18;;
30966;SDS011;17649;51.836;8.330;2022-08-21T04:32:01;18.90;;;15.23;;
30966;SDS011;17649;51.836;8.330;2022-08-21T04:35:11;22.37;;;15.50;;
30966;SDS011;17649;51.836;8.330;2022-08-21T04:38:12;22.40;;;14.93;;
30966;SDS011;17649;51.836;8.330;2022-08-21T04:41:20;24.52;;;15.77;;
30966;SDS011;17649;51.836;8.330;2022-08-21T04:44:28;20.95;;;15.75;;
30966;SDS011;17649;51.836;8.330;2022-08-21T04:47:32;24.33;;;16.40;;
30966;SDS011;17649;51.836;8.330;2022-08-21T04:50:39;21.95;;;16.98;;
30966;SDS011;17649;51.836;8.330;2022-08-21T04:53:58;22.95;;;16.52;;
30966;SDS011;17649;51.836;8.330;2022-08-21T04:57:02;22.45;;;17.20;;
30966;SDS011;17649;51.836;8.330;2022-08-21T05:00:11;22.00;;;16.53;;
30966;SDS011;17649;51.836;8.330;2022-08-21T05:03:18;23.25;;;16.45;;
30966;SDS011;17649;51.836;8.330;2022-08-21T05:06:18;22.83;;;16.83;;
30966;SDS011;17649;51.836;8.330;2022-08-21T05:09:21;21.60;;;16.30;;
30966;SDS011;17649;51.836;8.330;2022-08-21T05:12:23;23.17;;;17.15;;
30966;SDS011;17649;51.836;8.330;2022-08-21T05:15:25;23.88;;;17.23;;
30966;SDS011;17649;51.836;8.330;2022-08-21T05:18:25;29.23;;;18.13;;
30966;SDS011;17649;51.836;8.330;2022-08-21T05:21:26;19.93;;;16.53;;
30966;SDS011;17649;51.836;8.330;2022-08-21T05:24:26;19.77;;;16.03;;
30966;SDS011;17649;51.836;8.330;2022-08-21T05:27:27;20.75;;;16.77;;
30966;SDS011;17649;51.836;8.330;2022-08-21T05:30:29;20.90;;;16.42;;
30966;SDS011;17649;51.836;8.330;2022-08-21T05:33:33;21.30;;;16.80;;
30966;SDS011;17649;51.836;8.330;2022-08-21T05:36:36;22.10;;;18.45;;
30966;SDS011;17649;51.836;8.330;2022-08-21T05:39:37;23.85;;;18.55;;
30966;SDS011;17649;51.836;8.330;2022-08-21T05:42:38;25.02;;;18.38;;
30966;SDS011;17649;51.836;8.330;2022-08-21T05:45:39;26.90;;;19.08;;
30966;SDS011;17649;51.836;8.330;2022-08-21T05:48:40;29.63;;;20.42;;
30966;SDS011;17649;51.836;8.330;2022-08-21T05:51:42;26.13;;;18.85;;
30966;SDS011;17649;51.836;8.330;2022-08-21T05:54:42;29.88;;;18.92;;
30966;SDS011;17649;51.836;8.330;2022-08-21T05:57:46;26.67;;;19.67;;
30966;SDS011;17649;51.836;8.330;2022-08-21T06:00:49;24.45;;;18.10;;
30966;SDS011;17649;51.836;8.330;2022-08-21T06:03:56;24.10;;;18.75;;
30966;SDS011;17649;51.836;8.330;2022-08-21T06:06:58;30.23;;;19.83;;
30966;SDS011;17649;51.836;8.330;2022-08-21T06:09:59;25.05;;;18.35;;
30966;SDS011;17649;51.836;8.330;2022-08-21T06:13:03;25.63;;;18.52;;
30966;SDS011;17649;51.836;8.330;2022-08-21T06:16:14;20.52;;;16.40;;
30966;SDS011;17649;51.836;8.330;2022-08-21T06:19:16;22.77;;;17.38;;
30966;SDS011;17649;51.836;8.330;2022-08-21T06:22:17;23.40;;;17.13;;
30966;SDS011;17649;51.836;8.330;2022-08-21T06:25:23;25.95;;;18.15;;
30966;SDS011;17649;51.836;8.330;2022-08-21T06:28:24;29.85;;;17.75;;
30966;SDS011;17649;51.836;8.330;2022-08-21T06:31:25;27.30;;;18.80;;
30966;SDS011;17649;51.836;8.330;2022-08-21T06:34:27;29.25;;;18.33;;
30966;SDS011;17649;51.836;8.330;2022-08-21T06:37:27;33.93;;;19.40;;
30966;SDS011;17649;51.836;8.330;2022-08-21T06:40:28;32.27;;;20.57;;
30966;SDS011;17649;51.836;8.330;2022-08-21T06:43:29;30.92;;;19.95;;
30966;SDS011;17649;51.836;8.330;2022-08-21T06:46:30;21.55;;;16.02;;
30966;SDS011;17649;51.836;8.330;2022-08-21T06:49:32;23.77;;;16.23;;
30966;SDS011;17649;51.836;8.330;2022-08-21T06:52:35;23.85;;;16.25;;
30966;SDS011;17649;51.836;8.330;2022-08-21T06:55:36;27.40;;;16.63;;
30966;SDS011;17649;51.836;8.330;2022-08-21T06:58:37;25.45;;;17.98;;
30966;SDS011;17649;51.836;8.330;2022-08-21T07:01:38;21.50;;;15.03;;
30966;SDS011;17649;51.836;8.330;2022-08-21T07:04:39;27.10;;;16.63;;
30966;SDS011;17649;51.836;8.330;2022-08-21T07:07:39;27.47;;;16.00;;
30966;SDS011;17649;51.836;8.330;2022-08-21T07:10:40;22.02;;;15.25;;
30966;SDS011;17649;51.836;8.330;2022-08-21T07:13:41;20.23;;;14.27;;
30966;SDS011;17649;51.836;8.330;2022-08-21T07:16:42;21.67;;;13.70;;
30966;SDS011;17649;51.836;8.330;2022-08-21T07:19:45;26.23;;;16.35;;
30966;SDS011;17649;51.836;8.330;2022-08-21T07:22:46;25.38;;;13.75;;
30966;SDS011;17649;51.836;8.330;2022-08-21T07:25:47;20.63;;;14.60;;
30966;SDS011;17649;51.836;8.330;2022-08-21T07:28:49;23.15;;;14.05;;
30966;SDS011;17649;51.836;8.330;2022-08-21T07:31:50;29.70;;;14.85;;
30966;SDS011;17649;51.836;8.330;2022-08-21T07:34:51;26.00;;;15.93;;
30966;SDS011;17649;51.836;8.330;2022-08-21T07:37:52;21.40;;;14.25;;
30966;SDS011;17649;51.836;8.330;2022-08-21T07:40:53;21.67;;;14.90;;
30966;SDS011;17649;51.836;8.330;2022-08-21T07:43:59;24.27;;;14.70;;
30966;SDS011;17649;51.836;8.330;2022-08-21T07:47:07;20.67;;;12.38;;
30966;SDS011;17649;51.836;8.330;2022-08-21T07:50:09;22.20;;;14.05;;
30966;SDS011;17649;51.836;8.330;2022-08-21T07:53:14;19.63;;;11.90;;
30966;SDS011;17649;51.836;8.330;2022-08-21T07:56:15;20.23;;;10.77;;
30966;SDS011;17649;51.836;8.330;2022-08-21T07:59:16;16.98;;;11.00;;
30966;SDS011;17649;51.836;8.330;2022-08-21T08:02:24;18.87;;;9.90;;
30966;SDS011;17649;51.836;8.330;2022-08-21T08:05:27;16.38;;;8.65;;
30966;SDS011;17649;51.836;8.330;2022-08-21T08:08:29;11.10;;;6.75;;
30966;SDS011;17649;51.836;8.330;2022-08-21T08:11:32;15.07;;;6.90;;
30966;SDS011;17649;51.836;8.330;2022-08-21T08:14:34;13.13;;;7.47;;
30966;SDS011;17649;51.836;8.330;2022-08-21T08:17:35;16.73;;;7.13;;
30966;SDS011;17649;51.836;8.330;2022-08-21T08:20:38;15.40;;;8.57;;
30966;SDS011;17649;51.836;8.330;2022-08-21T08:23:41;16.97;;;8.50;;
30966;SDS011;17649;51.836;8.330;2022-08-21T08:26:48;20.77;;;8.40;;
30966;SDS011;17649;51.836;8.330;2022-08-21T08:29:54;13.75;;;8.07;;
30966;SDS011;17649;51.836;8.330;2022-08-21T08:32:55;18.27;;;8.38;;
30966;SDS011;17649;51.836;8.330;2022-08-21T08:36:01;14.85;;;8.32;;
30966;SDS011;17649;51.836;8.330;2022-08-21T08:39:06;10.55;;;6.90;;
30966;SDS011;17649;51.836;8.330;2022-08-21T08:45:16;11.38;;;7.22;;
30966;SDS011;17649;51.836;8.330;2022-08-21T08:51:37;13.18;;;6.43;;
30966;SDS011;17649;51.836;8.330;2022-08-21T08:54:45;12.43;;;6.23;;
30966;SDS011;17649;51.836;8.330;2022-08-21T08:57:52;11.45;;;6.50;;
30966;SDS011;17649;51.836;8.330;2022-08-21T09:00:58;11.27;;;6.07;;
30966;SDS011;17649;51.836;8.330;2022-08-21T09:04:03;10.87;;;6.30;;
30966;SDS011;17649;51.836;8.330;2022-08-21T09:28:13;10.07;;;4.55;;
30966;SDS011;17649;51.836;8.330;2022-08-21T09:31:22;10.02;;;4.20;;
30966;SDS011;17649;51.836;8.330;2022-08-21T09:34:27;10.33;;;4.40;;
30966;SDS011;17649;51.836;8.330;2022-08-21T09:37:32;11.20;;;4.50;;
30966;SDS011;17649;51.836;8.330;2022-08-21T09:43:37;7.70;;;3.30;;
30966;SDS011;17649;51.836;8.330;2022-08-21T09:46:38;9.27;;;3.30;;
30966;SDS011;17649;51.836;8.330;2022-08-21T09:49:52;8.10;;;3.47;;
30966;SDS011;17649;51.836;8.330;2022-08-21T09:52:54;9.13;;;3.50;;
30966;SDS011;17649;51.836;8.330;2022-08-21T09:56:03;7.90;;;3.22;;
30966;SDS011;17649;51.836;8.330;2022-08-21T09:59:34;7.25;;;3.30;;
30966;SDS011;17649;51.836;8.330;2022-08-21T11:08:24;10.93;;;3.80;;
